Time;durP1;ratioP1;P1;durP2;ratioP2;P2;SDS_P1;SDS_P2;PMS_P1;PMS_P2;Temp;Humidity;BMP_temperature;BMP_pressure;BME280_temperature;BME280_humidity;BME280_pressure;Samples;Min_cycle;Max_cycle;Signal;HPM_P1;HPM_P2
2022/03/25 00:01:22;;;;;;;21.13;11.65;;;7.10;66.30;;;;;;5027279;28;20049;-67
2022/03/25 00:03:48;;;;;;;19.25;11.70;;;7.10;66.40;;;;;;5030823;28;20029;-67
2022/03/25 00:06:14;;;;;;;23.63;11.88;;;7.10;66.90;;;;;;5033738;28;20025;-67
2022/03/25 00:08:40;;;;;;;22.88;12.05;;;7.00;67.10;;;;;;5028107;28;20026;-65
2022/03/25 00:11:05;;;;;;;27.33;13.07;;;6.90;67.90;;;;;;5024547;28;20104;-67
2022/03/25 00:13:31;;;;;;;26.75;13.13;;;6.90;68.30;;;;;;5027225;28;20029;-65
2022/03/25 00:15:57;;;;;;;21.90;12.30;;;6.80;68.40;;;;;;5029127;28;20029;-66
2022/03/25 00:18:23;;;;;;;30.25;13.10;;;6.80;67.90;;;;;;5027277;28;20052;-66
2022/03/25 00:20:49;;;;;;;27.05;12.68;;;6.90;67.50;;;;;;5030290;28;20108;-66
2022/03/25 00:23:15;;;;;;;24.85;12.15;;;6.80;67.40;;;;;;5027989;28;20078;-66
2022/03/25 00:25:41;;;;;;;27.17;13.32;;;6.90;67.60;;;;;;5026815;28;20079;-67
2022/03/25 00:28:07;;;;;;;26.67;13.02;;;6.80;67.90;;;;;;5023603;28;20021;-66
2022/03/25 00:30:33;;;;;;;25.48;13.25;;;6.90;67.90;;;;;;5030439;28;20140;-66
2022/03/25 00:33:02;;;;;;;24.67;12.55;;;6.90;67.80;;;;;;5031929;28;20021;-66
2022/03/25 00:35:27;;;;;;;22.42;12.45;;;6.80;67.60;;;;;;5025318;28;20125;-66
2022/03/25 00:37:53;;;;;;;21.48;12.57;;;6.80;67.70;;;;;;5020521;28;20035;-66
2022/03/25 00:40:19;;;;;;;21.38;12.63;;;6.80;67.80;;;;;;5028221;28;20026;-68
2022/03/25 00:42:44;;;;;;;21.98;12.20;;;6.80;67.50;;;;;;5030471;28;21390;-66
2022/03/25 00:45:13;;;;;;;24.75;12.15;;;6.80;67.40;;;;;;5029892;28;20113;-67
2022/03/25 00:47:38;;;;;;;28.20;13.50;;;6.80;67.50;;;;;;5032132;28;20092;-67
2022/03/25 00:50:04;;;;;;;23.42;12.60;;;6.80;67.60;;;;;;5030463;28;20082;-66
2022/03/25 00:52:30;;;;;;;25.48;12.65;;;6.80;67.80;;;;;;5030086;28;20049;-66
2022/03/25 00:54:56;;;;;;;24.55;13.73;;;6.80;68.00;;;;;;5027571;28;20942;-67
2022/03/25 00:57:21;;;;;;;24.98;12.48;;;6.80;68.00;;;;;;5023066;28;20861;-67
2022/03/25 00:59:47;;;;;;;24.13;12.35;;;6.80;67.80;;;;;;5030172;28;20441;-67
2022/03/25 01:02:13;;;;;;;23.00;12.27;;;6.70;67.70;;;;;;5029762;28;20454;-67
2022/03/25 01:04:39;;;;;;;25.08;12.27;;;6.70;67.70;;;;;;5024099;28;20068;-67
2022/03/25 01:07:05;;;;;;;25.85;12.55;;;6.70;67.90;;;;;;5022101;28;20033;-67
2022/03/25 01:09:30;;;;;;;25.52;12.50;;;6.60;68.10;;;;;;5027522;28;20117;-67
2022/03/25 01:11:56;;;;;;;27.05;12.70;;;6.60;68.70;;;;;;5027945;28;20033;-67
2022/03/25 01:14:21;;;;;;;22.98;12.35;;;6.60;68.60;;;;;;5025772;28;20037;-67
2022/03/25 01:16:48;;;;;;;21.77;11.90;;;6.50;68.80;;;;;;5027224;28;20067;-67
2022/03/25 01:19:13;;;;;;;22.38;12.25;;;6.50;69.60;;;;;;5026452;28;20092;-67
2022/03/25 01:21:39;;;;;;;24.80;12.55;;;6.40;69.90;;;;;;5027599;28;20108;-67
2022/03/25 01:24:05;;;;;;;23.65;11.50;;;6.40;70.10;;;;;;5028619;28;20104;-67
2022/03/25 01:26:31;;;;;;;23.55;12.85;;;6.30;70.80;;;;;;5028741;28;20113;-67
2022/03/25 01:28:57;;;;;;;22.73;12.60;;;6.30;70.80;;;;;;5024667;28;20037;-67
2022/03/25 01:31:23;;;;;;;23.13;11.93;;;6.20;71.10;;;;;;5025481;28;20036;-66
2022/03/25 01:33:52;;;;;;;22.17;12.50;;;6.20;71.70;;;;;;5026452;28;20045;-66
2022/03/25 01:36:19;;;;;;;22.60;12.50;;;6.20;71.40;;;;;;5025169;28;20026;-66
2022/03/25 01:38:50;;;;;;;24.15;13.25;;;6.20;71.00;;;;;;5026536;28;20075;-67
2022/03/25 01:41:18;;;;;;;30.10;14.05;;;6.20;71.60;;;;;;5026547;28;20510;-66
2022/03/25 01:43:52;;;;;;;25.33;13.93;;;6.10;73.70;;;;;;5027980;28;20030;-66
2022/03/25 01:46:17;;;;;;;23.75;13.55;;;6.00;73.10;;;;;;5028953;28;20030;-66
2022/03/25 01:48:46;;;;;;;27.45;13.13;;;5.90;74.50;;;;;;5024015;28;20032;-66
2022/03/25 01:51:19;;;;;;;29.25;14.20;;;5.90;76.10;;;;;;5027569;28;20544;-66
2022/03/25 01:53:47;;;;;;;25.73;14.13;;;5.80;77.00;;;;;;5027952;28;20041;-66
2022/03/25 01:56:22;;;;;;;26.20;13.27;;;5.70;77.30;;;;;;5026623;28;20072;-66
2022/03/25 01:58:48;;;;;;;26.95;13.60;;;5.70;78.00;;;;;;5027872;28;20022;-66
2022/03/25 02:01:14;;;;;;;25.33;12.88;;;5.60;78.50;;;;;;5024335;28;20021;-66
2022/03/25 02:03:40;;;;;;;24.75;13.15;;;5.50;79.00;;;;;;5024404;28;20029;-66
2022/03/25 02:06:06;;;;;;;27.27;12.88;;;5.50;80.00;;;;;;5025248;28;20036;-66
2022/03/25 02:08:32;;;;;;;23.63;13.25;;;5.40;80.80;;;;;;5024488;28;20018;-66
2022/03/25 02:10:58;;;;;;;25.98;13.40;;;5.40;80.40;;;;;;5027117;28;20044;-66
2022/03/25 02:13:25;;;;;;;27.13;13.60;;;5.40;80.00;;;;;;5027603;28;20033;-68
2022/03/25 02:15:52;;;;;;;25.50;13.23;;;5.40;79.80;;;;;;5024126;28;20026;-67
2022/03/25 02:18:18;;;;;;;25.85;12.00;;;5.40;79.10;;;;;;5028413;28;20958;-68
2022/03/25 02:20:46;;;;;;;23.17;12.13;;;5.40;78.40;;;;;;5023668;28;20084;-65
2022/03/25 02:23:13;;;;;;;24.25;13.07;;;5.50;77.80;;;;;;5023372;28;20490;-68
2022/03/25 02:25:40;;;;;;;24.63;12.82;;;5.50;76.90;;;;;;5024896;28;20030;-67
2022/03/25 02:28:06;;;;;;;26.27;13.45;;;5.50;76.70;;;;;;5024840;28;20025;-67
2022/03/25 02:30:34;;;;;;;24.33;12.80;;;5.50;76.90;;;;;;5023382;28;20026;-67
2022/03/25 02:33:01;;;;;;;25.23;13.18;;;5.50;77.30;;;;;;5022335;28;20030;-67
2022/03/25 02:35:37;;;;;;;23.23;11.85;;;5.50;77.30;;;;;;5026094;28;20034;-67
2022/03/25 02:38:04;;;;;;;28.08;13.10;;;5.50;77.40;;;;;;5024455;28;20131;-68
2022/03/25 02:40:29;;;;;;;26.15;12.75;;;5.50;77.60;;;;;;5027063;28;20075;-67
2022/03/25 02:42:55;;;;;;;24.52;12.23;;;5.50;77.80;;;;;;5025286;28;20025;-67
2022/03/25 02:45:21;;;;;;;22.92;12.82;;;5.40;79.20;;;;;;5027796;28;20037;-67
2022/03/25 02:47:47;;;;;;;24.88;14.05;;;5.50;81.00;;;;;;5024830;28;20037;-67
2022/03/25 02:50:12;;;;;;;25.30;14.65;;;5.40;83.20;;;;;;5026078;28;20034;-67
2022/03/25 02:52:38;;;;;;;27.17;15.43;;;5.30;84.50;;;;;;5020682;28;20129;-67
2022/03/25 02:55:04;;;;;;;34.15;16.17;;;5.30;85.60;;;;;;5023515;28;20022;-67
2022/03/25 02:57:30;;;;;;;32.90;16.70;;;5.30;86.60;;;;;;5023464;28;20034;-67
2022/03/25 02:59:56;;;;;;;33.22;16.70;;;5.30;86.70;;;;;;5024437;28;20022;-67
2022/03/25 03:02:21;;;;;;;28.80;15.23;;;5.20;86.80;;;;;;5022113;28;20033;-67
2022/03/25 03:04:53;;;;;;;25.30;13.98;;;5.10;86.80;;;;;;5023758;28;20490;-67
2022/03/25 03:07:18;;;;;;;26.10;14.10;;;5.00;86.90;;;;;;5029890;28;20082;-66
2022/03/25 03:09:44;;;;;;;26.23;14.20;;;5.00;87.80;;;;;;5030477;28;20125;-66
2022/03/25 03:12:10;;;;;;;26.58;14.27;;;4.90;88.80;;;;;;5025459;28;20025;-67
2022/03/25 03:14:39;;;;;;;28.77;14.60;;;4.80;90.40;;;;;;5029622;28;20175;-67
2022/03/25 03:17:05;;;;;;;29.98;14.25;;;4.80;90.40;;;;;;5028728;28;20486;-67
2022/03/25 03:19:31;;;;;;;27.05;14.23;;;4.80;90.50;;;;;;5030197;28;20032;-67
2022/03/25 03:21:58;;;;;;;24.17;13.10;;;4.80;90.30;;;;;;5031948;28;20044;-67
2022/03/25 03:24:23;;;;;;;25.42;12.30;;;4.70;89.90;;;;;;5028317;28;20147;-67
2022/03/25 03:26:49;;;;;;;25.20;12.52;;;4.70;89.60;;;;;;5030075;28;20050;-67
2022/03/25 03:29:15;;;;;;;22.33;12.35;;;4.70;89.60;;;;;;5032538;28;20033;-67
2022/03/25 03:31:41;;;;;;;24.23;14.05;;;4.60;89.70;;;;;;5028898;28;20046;-67
2022/03/25 03:34:07;;;;;;;26.42;12.50;;;4.60;89.70;;;;;;5025910;28;20029;-67
2022/03/25 03:36:32;;;;;;;26.33;13.23;;;4.70;89.90;;;;;;5026954;28;20029;-67
2022/03/25 03:38:58;;;;;;;31.67;13.35;;;4.70;89.70;;;;;;5030549;28;20477;-67
2022/03/25 03:41:25;;;;;;;24.17;12.65;;;4.60;89.30;;;;;;5025904;28;20029;-67
2022/03/25 03:43:51;;;;;;;22.58;12.60;;;4.60;89.90;;;;;;5030592;28;20076;-67
2022/03/25 03:46:19;;;;;;;23.45;12.80;;;4.60;89.40;;;;;;5028632;28;20474;-67
2022/03/25 03:48:45;;;;;;;24.50;12.68;;;4.60;89.00;;;;;;5026917;28;20026;-67
2022/03/25 03:51:11;;;;;;;24.65;13.52;;;4.70;88.60;;;;;;5027154;28;20033;-66
2022/03/25 03:53:43;;;;;;;26.63;12.95;;;4.60;88.50;;;;;;5028660;28;20033;-67
2022/03/25 03:56:08;;;;;;;25.55;12.63;;;4.60;88.70;;;;;;5029499;28;20029;-67
2022/03/25 03:58:34;;;;;;;29.08;13.75;;;4.60;88.90;;;;;;5027883;28;20025;-67
2022/03/25 04:00:59;;;;;;;22.30;12.52;;;4.60;88.90;;;;;;5027610;28;20026;-67
2022/03/25 04:03:26;;;;;;;26.98;13.20;;;4.50;89.40;;;;;;5036628;23;20037;-83
2022/03/25 04:05:51;;;;;;;34.47;15.60;;;4.50;90.00;;;;;;5039090;28;20104;-83
2022/03/25 04:08:17;;;;;;;25.10;14.10;;;4.50;90.80;;;;;;5038514;28;20232;-83
2022/03/25 04:10:43;;;;;;;22.02;12.80;;;4.50;92.90;;;;;;5040673;28;20025;-84
2022/03/25 04:13:09;;;;;;;25.98;14.65;;;4.40;93.70;;;;;;5046095;28;20032;-84
2022/03/25 04:15:34;;;;;;;25.48;14.00;;;4.40;93.60;;;;;;5043547;28;20122;-83
2022/03/25 04:18:00;;;;;;;28.48;15.75;;;4.30;93.70;;;;;;5045910;28;20036;-83
2022/03/25 04:20:27;;;;;;;28.13;14.80;;;4.30;93.90;;;;;;5040773;28;20382;-83
2022/03/25 04:22:52;;;;;;;26.08;15.18;;;4.20;93.90;;;;;;5044631;28;20469;-83
2022/03/25 04:25:18;;;;;;;28.08;15.43;;;4.10;94.60;;;;;;5039947;28;20028;-83
2022/03/25 04:27:56;;;;;;;29.95;15.02;;;4.00;95.00;;;;;;5038447;28;20028;-83
2022/03/25 04:30:31;;;;;;;27.33;15.05;;;4.00;95.40;;;;;;5043047;28;20036;-83
2022/03/25 04:32:58;;;;;;;27.20;14.88;;;4.00;96.10;;;;;;5037886;28;20051;-84
2022/03/25 04:35:25;;;;;;;25.95;14.25;;;4.00;96.50;;;;;;5040625;28;20025;-85
2022/03/25 04:37:52;;;;;;;27.40;13.73;;;4.00;96.70;;;;;;5037181;28;20091;-83
2022/03/25 04:40:20;;;;;;;29.88;13.85;;;4.00;96.80;;;;;;5042657;28;20122;-82
2022/03/25 04:42:47;;;;;;;29.48;14.68;;;4.00;97.40;;;;;;5041677;28;20047;-83
2022/03/25 04:45:13;;;;;;;30.95;15.27;;;3.90;97.50;;;;;;5041263;28;20048;-84
2022/03/25 04:47:39;;;;;;;29.58;14.57;;;3.90;97.60;;;;;;5041989;28;20495;-83
2022/03/25 04:50:05;;;;;;;25.85;12.80;;;4.00;96.90;;;;;;5041544;28;20040;-83
2022/03/25 04:52:31;;;;;;;25.75;13.05;;;3.90;96.20;;;;;;5041052;28;20516;-83
2022/03/25 04:54:57;;;;;;;26.50;14.25;;;3.90;96.00;;;;;;5043194;28;20041;-82
2022/03/25 04:57:23;;;;;;;25.63;13.05;;;3.90;95.90;;;;;;5042755;28;20029;-81
2022/03/25 04:59:49;;;;;;;28.60;14.68;;;3.90;95.40;;;;;;5040482;28;20033;-82
2022/03/25 05:02:15;;;;;;;30.00;13.38;;;3.80;95.40;;;;;;5039154;28;20082;-81
2022/03/25 05:04:41;;;;;;;26.10;13.13;;;3.80;95.40;;;;;;5042813;28;20029;-81
2022/03/25 05:07:06;;;;;;;27.23;12.73;;;3.80;95.50;;;;;;5036646;28;20029;-82
2022/03/25 05:09:33;;;;;;;31.65;14.05;;;3.80;95.50;;;;;;5042198;28;20589;-81
2022/03/25 05:11:59;;;;;;;24.88;13.40;;;3.80;95.30;;;;;;5044050;28;20037;-81
2022/03/25 05:14:25;;;;;;;28.08;13.75;;;3.80;94.80;;;;;;5044041;28;20029;-82
2022/03/25 05:16:53;;;;;;;27.63;13.35;;;3.80;94.90;;;;;;5041515;28;20492;-82
2022/03/25 05:19:22;;;;;;;28.13;14.77;;;3.80;94.90;;;;;;5041735;28;20029;-82
2022/03/25 05:21:48;;;;;;;28.33;14.30;;;3.70;95.10;;;;;;5044102;28;20782;-82
2022/03/25 05:24:14;;;;;;;26.77;13.75;;;3.70;95.30;;;;;;5041677;28;20048;-83
2022/03/25 05:26:40;;;;;;;32.25;14.23;;;3.80;95.30;;;;;;5044037;28;20025;-83
2022/03/25 05:29:06;;;;;;;27.98;12.48;;;3.70;95.10;;;;;;5042477;28;20021;-83
2022/03/25 05:31:32;;;;;;;27.50;14.18;;;3.70;95.20;;;;;;5043872;28;20444;-83
2022/03/25 05:33:58;;;;;;;37.20;14.13;;;3.80;95.60;;;;;;5040670;28;20029;-83
2022/03/25 05:36:23;;;;;;;32.35;14.68;;;3.70;95.80;;;;;;5039238;28;20032;-81
2022/03/25 05:38:51;;;;;;;29.75;15.63;;;3.70;96.50;;;;;;5040441;28;20025;-82
2022/03/25 05:41:17;;;;;;;33.20;14.70;;;3.70;97.40;;;;;;5040394;28;20052;-82
2022/03/25 05:43:43;;;;;;;28.70;14.32;;;3.70;97.70;;;;;;5042473;28;20485;-82
2022/03/25 05:46:09;;;;;;;27.98;15.07;;;3.80;97.90;;;;;;5042226;28;20024;-82
2022/03/25 05:48:34;;;;;;;28.48;15.45;;;3.80;98.30;;;;;;5044156;28;20029;-82
2022/03/25 05:51:00;;;;;;;30.05;15.77;;;3.80;98.30;;;;;;5042298;28;20067;-81
2022/03/25 05:53:26;;;;;;;30.13;16.95;;;3.80;98.30;;;;;;5041482;28;20037;-81
2022/03/25 05:55:52;;;;;;;32.53;15.27;;;3.90;98.50;;;;;;5036263;28;20451;-82
2022/03/25 05:58:18;;;;;;;30.00;15.68;;;3.90;98.40;;;;;;5039857;28;20813;-82
2022/03/25 06:00:44;;;;;;;33.65;16.95;;;4.00;97.90;;;;;;5039119;28;20056;-82
2022/03/25 06:03:10;;;;;;;31.02;15.85;;;4.00;97.70;;;;;;5040032;28;20021;-82
2022/03/25 06:05:36;;;;;;;31.35;16.05;;;4.10;98.10;;;;;;5038607;28;20021;-82
2022/03/25 06:08:02;;;;;;;30.58;16.10;;;4.10;98.00;;;;;;5039638;28;20033;-81
2022/03/25 06:10:27;;;;;;;32.45;15.40;;;4.20;97.80;;;;;;5044348;28;20519;-80
2022/03/25 06:12:53;;;;;;;28.00;16.02;;;4.20;97.70;;;;;;5036616;28;20064;-85
2022/03/25 06:15:19;;;;;;;26.98;15.07;;;4.30;97.70;;;;;;5043969;28;20024;-82
2022/03/25 06:17:50;;;;;;;37.75;17.00;;;4.30;97.20;;;;;;5040905;28;20393;-82
2022/03/25 06:20:23;;;;;;;30.52;14.82;;;4.40;97.00;;;;;;5044958;28;20021;-81
2022/03/25 06:22:49;;;;;;;32.35;16.77;;;4.30;96.80;;;;;;5049019;28;20039;-81
2022/03/25 06:25:15;;;;;;;37.63;17.05;;;4.40;96.80;;;;;;5042768;28;20313;-82
2022/03/25 06:27:49;;;;;;;33.40;16.27;;;4.40;96.70;;;;;;5044153;28;20485;-81
2022/03/25 06:30:15;;;;;;;30.60;15.45;;;4.50;96.50;;;;;;5039693;28;20105;-82
2022/03/25 06:32:42;;;;;;;31.05;16.08;;;4.50;96.40;;;;;;5036824;28;20033;-80
2022/03/25 06:35:08;;;;;;;34.83;16.27;;;4.50;96.30;;;;;;5066414;28;20033;-79
2022/03/25 06:37:35;;;;;;;32.58;16.08;;;4.50;95.90;;;;;;5041459;28;20040;-82
2022/03/25 06:40:02;;;;;;;26.70;15.32;;;4.40;95.30;;;;;;5039854;28;20163;-82
2022/03/25 06:42:27;;;;;;;29.17;15.25;;;4.50;95.30;;;;;;5043024;28;20421;-83
2022/03/25 06:44:53;;;;;;;32.47;16.15;;;4.60;95.20;;;;;;5046473;28;20025;-80
2022/03/25 06:47:19;;;;;;;29.42;14.95;;;4.70;95.50;;;;;;5044307;28;20499;-80
2022/03/25 06:49:44;;;;;;;33.80;16.13;;;4.70;95.20;;;;;;5040794;28;20036;-82
2022/03/25 06:52:11;;;;;;;37.38;16.73;;;4.90;95.10;;;;;;5033862;28;20029;-81
2022/03/25 06:54:37;;;;;;;35.38;17.70;;;4.90;95.10;;;;;;5041737;28;20029;-80
2022/03/25 06:57:03;;;;;;;33.53;16.42;;;5.00;95.00;;;;;;5045172;28;20029;-79
2022/03/25 06:59:29;;;;;;;41.33;17.95;;;5.10;94.90;;;;;;5042861;28;20481;-80
2022/03/25 07:01:55;;;;;;;34.75;16.67;;;5.10;94.80;;;;;;5040182;28;20025;-79
2022/03/25 07:04:21;;;;;;;32.00;16.40;;;5.10;94.50;;;;;;5042574;28;20036;-77
2022/03/25 07:06:48;;;;;;;31.48;17.50;;;5.10;94.20;;;;;;5041157;28;20100;-83
2022/03/25 07:09:15;;;;;;;28.88;16.02;;;5.20;94.10;;;;;;5045393;28;20044;-87
2022/03/25 07:11:41;;;;;;;38.30;16.83;;;5.20;93.80;;;;;;5038274;28;20366;-84
2022/03/25 07:14:06;;;;;;;28.88;16.60;;;5.30;93.30;;;;;;5044452;28;20108;-87
2022/03/25 07:16:32;;;;;;;34.35;15.82;;;5.40;93.20;;;;;;5049211;28;20473;-87
2022/03/25 07:18:59;;;;;;;36.28;17.35;;;5.50;92.80;;;;;;5043344;28;20095;-86
2022/03/25 07:21:25;;;;;;;33.17;16.48;;;5.60;92.50;;;;;;5044057;28;20701;-87
2022/03/25 07:23:51;;;;;;;32.75;16.90;;;5.70;92.30;;;;;;5036748;28;20088;-84
2022/03/25 07:26:17;;;;;;;32.58;16.20;;;5.80;92.20;;;;;;5042777;28;20410;-84
2022/03/25 07:28:44;;;;;;;34.95;17.10;;;5.90;91.70;;;;;;5040376;28;20082;-85
2022/03/25 07:31:10;;;;;;;31.27;16.70;;;6.00;91.40;;;;;;5040883;28;20487;-85
2022/03/25 07:33:36;;;;;;;35.33;16.92;;;6.10;91.30;;;;;;5038921;28;20051;-83
2022/03/25 07:36:02;;;;;;;35.22;16.02;;;6.20;90.70;;;;;;5035752;28;20039;-82
2022/03/25 07:38:28;;;;;;;38.15;17.45;;;6.40;90.30;;;;;;5039073;28;20400;-82
2022/03/25 07:40:55;;;;;;;33.33;16.83;;;6.40;89.90;;;;;;5036249;28;20048;-81
2022/03/25 07:43:21;;;;;;;30.80;15.93;;;6.60;89.70;;;;;;5043693;28;20025;-82
2022/03/25 07:45:46;;;;;;;30.30;17.35;;;6.70;89.30;;;;;;5043573;28;20102;-82
2022/03/25 07:48:12;;;;;;;34.78;18.02;;;6.80;88.30;;;;;;5039968;28;20117;-82
2022/03/25 07:50:38;;;;;;;35.83;17.77;;;7.00;87.80;;;;;;5042028;28;20067;-82
2022/03/25 07:53:04;;;;;;;33.33;17.83;;;7.00;87.10;;;;;;5044744;28;20029;-81
2022/03/25 07:55:30;;;;;;;35.42;17.50;;;7.10;85.70;;;;;;5033893;28;20750;-81
2022/03/25 07:57:57;;;;;;;29.98;16.73;;;7.20;85.00;;;;;;5032292;28;20604;-81
2022/03/25 08:00:24;;;;;;;33.13;16.92;;;7.30;84.40;;;;;;5041300;28;20037;-85
2022/03/25 08:02:53;;;;;;;32.67;17.70;;;7.40;83.90;;;;;;5038752;28;20044;-85
2022/03/25 08:05:19;;;;;;;33.85;17.73;;;7.60;83.80;;;;;;5041123;23;20108;-78
2022/03/25 08:07:49;;;;;;;38.83;18.95;;;7.70;83.40;;;;;;5000469;28;20025;-79
2022/03/25 08:10:17;;;;;;;32.47;18.00;;;7.70;82.70;;;;;;4999872;28;20478;-77
2022/03/25 08:12:43;;;;;;;38.58;17.90;;;7.90;81.90;;;;;;5000535;28;20030;-77
2022/03/25 08:15:10;;;;;;;37.00;17.98;;;7.90;80.70;;;;;;4987215;28;20041;-77
2022/03/25 08:17:54;;;;;;;33.83;17.02;;;7.90;80.70;;;;;;5000321;28;20148;-78
2022/03/25 08:20:22;;;;;;;33.28;17.63;;;8.00;80.00;;;;;;5006369;28;20038;-77
2022/03/25 08:22:48;;;;;;;35.00;17.20;;;8.10;80.10;;;;;;5002864;28;20033;-77
2022/03/25 08:28:01;;;;;;;39.00;17.58;;;8.20;78.90;;;;;;5000923;28;20041;-76
2022/03/25 08:30:28;;;;;;;32.95;16.35;;;8.30;78.70;;;;;;4999977;28;20065;-77
2022/03/25 08:32:54;;;;;;;35.45;17.58;;;8.40;77.60;;;;;;5000661;28;20034;-76
2022/03/25 08:35:20;;;;;;;30.25;15.98;;;8.50;77.20;;;;;;4998098;28;20034;-76
2022/03/25 08:37:45;;;;;;;36.65;18.27;;;8.60;77.30;;;;;;4999187;28;20037;-77
2022/03/25 08:40:11;;;;;;;37.67;18.20;;;8.70;76.10;;;;;;5004806;28;20049;-77
2022/03/25 08:42:37;;;;;;;36.58;18.08;;;8.80;76.50;;;;;;4995281;28;20019;-78
2022/03/25 08:45:03;;;;;;;40.95;19.30;;;9.10;76.20;;;;;;5005972;28;20018;-77
2022/03/25 08:47:29;;;;;;;36.97;19.73;;;9.10;75.40;;;;;;4998130;28;20165;-76
2022/03/25 08:49:54;;;;;;;36.97;17.80;;;9.20;75.50;;;;;;5000629;28;20120;-77
2022/03/25 08:52:23;;;;;;;36.60;18.65;;;9.30;73.90;;;;;;5000115;28;20045;-76
2022/03/25 08:54:48;;;;;;;38.90;19.98;;;9.30;74.70;;;;;;4997643;28;20313;-76
2022/03/25 08:57:14;;;;;;;35.38;17.80;;;9.40;73.80;;;;;;5001130;28;20037;-77
2022/03/25 08:59:40;;;;;;;40.00;19.30;;;9.50;73.10;;;;;;5000469;28;20482;-76
2022/03/25 09:02:06;;;;;;;37.28;18.92;;;9.60;73.20;;;;;;4999186;28;20029;-76
2022/03/25 09:04:32;;;;;;;37.17;19.38;;;9.70;73.00;;;;;;4990695;28;20033;-76
2022/03/25 09:06:58;;;;;;;35.35;19.00;;;9.80;72.90;;;;;;4996896;28;20354;-77
2022/03/25 09:09:23;;;;;;;36.15;18.08;;;9.90;72.80;;;;;;4999127;28;20466;-78
2022/03/25 09:11:49;;;;;;;36.00;18.08;;;10.00;72.60;;;;;;5002110;28;20406;-78
2022/03/25 09:14:15;;;;;;;39.22;19.63;;;10.10;71.80;;;;;;4997611;28;20062;-78
2022/03/25 09:16:41;;;;;;;38.58;19.42;;;10.10;71.60;;;;;;5000544;28;20033;-78
2022/03/25 09:19:06;;;;;;;37.95;18.05;;;10.20;71.50;;;;;;5001305;28;20026;-79
2022/03/25 09:21:32;;;;;;;35.78;19.17;;;10.30;70.50;;;;;;4998533;28;20117;-77
2022/03/25 09:23:58;;;;;;;36.50;19.48;;;10.40;69.60;;;;;;5001243;28;20117;-77
2022/03/25 09:26:25;;;;;;;39.20;19.95;;;10.50;69.10;;;;;;5000492;28;20045;-77
2022/03/25 09:28:51;;;;;;;36.55;20.25;;;10.60;67.90;;;;;;5004919;28;20030;-78
2022/03/25 09:31:16;;;;;;;38.10;19.98;;;10.80;67.20;;;;;;5003518;28;20037;-78
2022/03/25 09:33:42;;;;;;;41.78;21.95;;;10.90;66.70;;;;;;5004370;28;20395;-79
2022/03/25 09:36:08;;;;;;;38.88;20.98;;;11.00;66.60;;;;;;4999043;28;20030;-82
2022/03/25 09:38:34;;;;;;;37.60;20.00;;;11.10;66.00;;;;;;5004007;28;20057;-82
2022/03/25 09:41:04;;;;;;;42.53;21.05;;;11.20;66.30;;;;;;5000292;28;20030;-81
2022/03/25 09:43:29;;;;;;;42.25;21.02;;;11.30;65.80;;;;;;5000025;28;20057;-85
2022/03/25 09:45:55;;;;;;;35.58;19.75;;;11.40;65.90;;;;;;5001797;28;20457;-84
2022/03/25 09:48:21;;;;;;;36.03;19.70;;;11.50;65.20;;;;;;5001095;28;20049;-84
2022/03/25 09:50:46;;;;;;;40.28;20.30;;;11.70;63.60;;;;;;5008449;28;20502;-79
2022/03/25 09:53:12;;;;;;;40.08;20.95;;;11.70;62.50;;;;;;5001982;28;20068;-82
2022/03/25 09:55:42;;;;;;;37.72;21.05;;;11.70;62.80;;;;;;5002287;28;20026;-78
2022/03/25 09:58:18;;;;;;;38.50;20.00;;;11.80;62.40;;;;;;5002280;28;20022;-79
2022/03/25 10:00:51;;;;;;;41.80;20.65;;;12.00;61.90;;;;;;5003652;28;20038;-79
2022/03/25 10:03:36;;;;;;;41.75;21.77;;;12.10;61.30;;;;;;4998559;28;20490;-79
2022/03/25 10:06:02;;;;;;;40.25;20.55;;;12.20;62.00;;;;;;5003140;28;20029;-80
2022/03/25 10:08:32;;;;;;;43.17;21.38;;;12.20;62.40;;;;;;5005063;28;20438;-79
2022/03/25 10:11:17;;;;;;;37.30;19.65;;;12.30;62.90;;;;;;5003281;28;20508;-80
2022/03/25 10:13:42;;;;;;;40.92;21.52;;;12.50;62.90;;;;;;4999791;28;20057;-77
2022/03/25 10:16:28;;;;;;;42.92;20.27;;;12.60;63.00;;;;;;4999493;28;20485;-78
2022/03/25 10:18:54;;;;;;;38.00;20.15;;;12.80;60.00;;;;;;4996939;28;20018;-77
2022/03/25 10:21:20;;;;;;;41.03;19.77;;;12.80;59.30;;;;;;5000076;28;20105;-78
2022/03/25 10:23:46;;;;;;;37.72;20.30;;;12.80;58.80;;;;;;4996189;28;20566;-79
2022/03/25 10:26:12;;;;;;;37.42;20.40;;;12.80;59.20;;;;;;5003682;28;20038;-79
2022/03/25 10:28:42;;;;;;;35.67;19.88;;;12.80;59.10;;;;;;5001092;28;20022;-79
2022/03/25 10:31:11;;;;;;;34.53;19.85;;;12.90;57.80;;;;;;5000361;28;20329;-78
2022/03/25 10:33:57;;;;;;;35.95;19.50;;;13.10;56.80;;;;;;4999021;28;20021;-78
2022/03/25 10:36:25;;;;;;;39.35;20.58;;;13.10;56.80;;;;;;4996997;28;20042;-77
2022/03/25 10:39:04;;;;;;;36.92;19.77;;;13.20;57.50;;;;;;4997435;28;20084;-77
2022/03/25 10:41:39;;;;;;;40.78;19.98;;;13.50;57.70;;;;;;4996757;28;20031;-79
2022/03/25 10:44:05;;;;;;;36.95;20.33;;;13.50;58.20;;;;;;5002608;28;20418;-79
2022/03/25 10:46:43;;;;;;;35.70;20.15;;;13.70;58.50;;;;;;4995590;28;20033;-79
2022/03/25 10:49:15;;;;;;;40.17;20.52;;;13.80;57.70;;;;;;4997261;28;20299;-77
2022/03/25 10:51:52;;;;;;;40.47;21.13;;;13.90;57.90;;;;;;5000130;28;20096;-76
2022/03/25 10:54:23;;;;;;;45.80;20.83;;;14.00;57.90;;;;;;4997310;28;20120;-76
2022/03/25 10:56:49;;;;;;;40.80;20.08;;;14.10;58.80;;;;;;4996414;28;20042;-78
2022/03/25 10:59:29;;;;;;;39.35;19.55;;;14.00;57.90;;;;;;4997898;28;20352;-78
2022/03/25 11:01:57;;;;;;;35.00;20.00;;;14.20;55.40;;;;;;5000665;28;20402;-80
2022/03/25 11:04:24;;;;;;;33.70;18.60;;;14.20;54.70;;;;;;4997021;28;20026;-76
2022/03/25 11:06:50;;;;;;;40.45;20.30;;;14.20;54.10;;;;;;5000585;28;20044;-77
2022/03/25 11:09:17;;;;;;;39.95;21.05;;;14.30;53.70;;;;;;5001053;28;20038;-76
2022/03/25 11:11:46;;;;;;;34.33;20.00;;;14.50;54.70;;;;;;4987082;28;20073;-76
2022/03/25 11:14:12;;;;;;;36.38;20.35;;;14.50;55.10;;;;;;4999152;28;20018;-75
2022/03/25 11:16:46;;;;;;;40.03;21.83;;;14.70;53.20;;;;;;4993001;28;20472;-76
2022/03/25 11:19:13;;;;;;;36.97;20.13;;;14.80;54.50;;;;;;4995913;28;20032;-77
2022/03/25 11:21:41;;;;;;;38.42;19.77;;;14.90;54.10;;;;;;4998658;28;20035;-77
2022/03/25 11:24:16;;;;;;;42.10;20.30;;;14.90;53.40;;;;;;4998335;28;20107;-78
2022/03/25 11:26:45;;;;;;;39.55;20.20;;;14.90;52.90;;;;;;4995538;28;20578;-77
2022/03/25 11:29:14;;;;;;;36.38;20.63;;;15.00;51.20;;;;;;5004206;28;20480;-77
2022/03/25 11:32:11;;;;;;;36.05;18.83;;;15.10;51.00;;;;;;5000513;28;21022;-77
2022/03/25 11:34:53;;;;;;;33.75;18.42;;;15.10;50.10;;;;;;4999379;28;20115;-79
2022/03/25 11:37:25;;;;;;;32.70;19.33;;;15.20;49.10;;;;;;4999648;28;20497;-76
2022/03/25 11:40:12;;;;;;;30.83;17.77;;;15.20;48.60;;;;;;5005627;28;20030;-76
2022/03/25 11:42:49;;;;;;;29.10;17.25;;;15.20;47.50;;;;;;5006259;28;20109;-78
2022/03/25 11:45:21;;;;;;;34.53;18.70;;;15.30;46.00;;;;;;5000702;28;20023;-79
2022/03/25 11:48:04;;;;;;;32.88;18.25;;;15.40;46.00;;;;;;5002562;28;20457;-77
2022/03/25 11:50:43;;;;;;;30.60;17.98;;;15.40;46.60;;;;;;4999411;28;20495;-79
2022/03/25 11:53:11;;;;;;;33.38;17.15;;;15.40;46.70;;;;;;4998268;28;20034;-77
2022/03/25 11:55:59;;;;;;;35.22;18.98;;;15.50;46.00;;;;;;5007034;28;20099;-76
2022/03/25 11:58:25;;;;;;;30.73;17.13;;;15.60;46.20;;;;;;5001002;28;20034;-77
2022/03/25 12:00:56;;;;;;;31.83;17.38;;;15.60;45.90;;;;;;4997268;28;20014;-78
2022/03/25 12:03:43;;;;;;;30.75;16.88;;;15.60;45.70;;;;;;4986222;28;20052;-79
2022/03/25 12:06:10;;;;;;;32.70;17.33;;;15.50;44.50;;;;;;4984422;28;20058;-77
2022/03/25 12:08:36;;;;;;;33.67;18.25;;;15.60;45.30;;;;;;4987562;28;20116;-78
2022/03/25 12:11:07;;;;;;;30.20;17.30;;;15.70;46.20;;;;;;4999365;28;20030;-77
2022/03/25 12:13:54;;;;;;;30.10;18.63;;;15.80;46.30;;;;;;4996941;28;20041;-78
2022/03/25 12:16:47;;;;;;;34.17;19.25;;;15.90;46.10;;;;;;4999801;28;20033;-78
2022/03/25 12:19:39;;;;;;;27.97;17.60;;;15.90;46.00;;;;;;5004520;28;20045;-78
2022/03/25 12:22:20;;;;;;;32.70;17.70;;;16.00;45.40;;;;;;4989467;28;20773;-79
2022/03/25 12:24:47;;;;;;;33.88;17.67;;;16.10;45.00;;;;;;4999377;28;20502;-77
2022/03/25 12:27:13;;;;;;;31.17;17.77;;;16.20;45.30;;;;;;5002154;28;20109;-75
2022/03/25 12:29:54;;;;;;;32.70;17.65;;;16.20;44.40;;;;;;5001886;28;20114;-75
2022/03/25 12:32:25;;;;;;;32.58;17.20;;;16.10;44.40;;;;;;5009096;28;20525;-77
2022/03/25 12:34:57;;;;;;;27.42;16.33;;;16.20;44.30;;;;;;4999141;28;20035;-77
2022/03/25 12:37:47;;;;;;;31.27;17.33;;;16.10;44.20;;;;;;5004343;28;20026;-76
2022/03/25 12:40:17;;;;;;;29.85;16.58;;;16.20;44.10;;;;;;4993974;28;20546;-77